Elena Of London — 2COR3 — position and weather

sailwx.info

Track history (hours):
 
Tides and Currents Weather Stations Pressure Air Temp Water Temp Dewpoint Dewpoint Depression Visibility Wind Speed Wind Dir Waves Ship Positions

Elena Of London

Last reported at 2015-Jul-01 19:12 UTC. Time now 2015-Jul-06 13:37 UTC.
Position N 43°49' E 007°48'.

Length 44 m; draft 5.2 m.

Type: Sailing vessel. MMSI: 235074534.

Date/timePositionNaut miles runAvg speedWind from/ knotsBaromVisibWave heightAir tempDewpointWater temp
2015-Jul-01 19:12N 43°49' E 007°48'0 0.0
2015-Jul-01 18:33N 43°49' E 007°48'0 0.0
2015-Jul-01 17:26N 43°49' E 007°48'0 0.0
2015-Jul-01 16:29N 43°49' E 007°48'0 0.0
2015-Jul-01 15:33N 43°49' E 007°48'4 4.2
2015-Jul-01 14:32N 43°46' E 007°43'1010.1
2015-Jul-01 13:33N 43°43' E 007°30'4 3.8
2015-Jul-01 12:33N 43°43' E 007°25'0 0.0
2015-Jul-01 11:27N 43°43' E 007°25'0 0.0
2015-Jul-01 10:26N 43°43' E 007°25'0 0.0
2015-Jul-01 09:33N 43°43' E 007°25'3 2.9
2015-Jul-01 08:33N 43°42' E 007°21'2 1.6
2015-Jul-01 07:33N 43°41' E 007°20'1 0.1
2015-Jul-01 00:17N 43°42' E 007°21'0 0.0
2015-Jun-30 20:12N 43°42' E 007°21'5 7.1
2015-Jun-30 19:34N 43°38' E 007°24'1110.7
2015-Jun-30 18:33N 43°30' E 007°35'1110.6
2015-Jun-30 17:33N 43°23' E 007°45'1110.6
2015-Jun-30 16:34N 43°15' E 007°55'8 8.3
2015-Jun-30 15:34N 43°09' E 008°03'8 8.1
2015-Jun-30 14:34N 43°03' E 008°11'2110.6
2015-Jun-30 12:33N 42°49' E 008°32'18 3.5
2015-Jun-30 07:24N 42°32' E 008°41'10 9.4
2015-Jun-30 06:19N 42°23' E 008°34'5 0.4
2015-Jun-29 17:33N 42°19' E 008°36'5 4.9
2015-Jun-29 16:33N 42°14' E 008°33'8 7.8
2015-Jun-29 15:33N 42°07' E 008°32'1110.3
2015-Jun-29 14:28N 41°55' E 008°34'9 9.8
2015-Jun-29 13:33N 41°47' E 008°37'61 1.2
2015-Jun-27 10:05N 41°02' E 009°32'0 0.0
2015-Jun-27 09:26N 41°02' E 009°32'  
Track history (hours):
 
Tides and Currents Weather Stations Pressure Air Temp Water Temp Dewpoint Dewpoint Depression Visibility Wind Speed Wind Dir Waves Ship Positions

Elena Of London

Last reported at 2015-Jul-01 19:12 UTC. Time now 2015-Jul-06 13:37 UTC.
Position N 43°49' E 007°48'.

Length 44 m; draft 5.2 m.

Type: Sailing vessel. MMSI: 235074534.

Date/timePositionNaut miles runAvg speedWind from/ knotsBaromVisibWave heightAir tempDewpointWater temp
2015-Jul-01 19:12N 43°49' E 007°48'0 0.0
2015-Jul-01 18:33N 43°49' E 007°48'0 0.0
2015-Jul-01 17:26N 43°49' E 007°48'0 0.0
2015-Jul-01 16:29N 43°49' E 007°48'0 0.0
2015-Jul-01 15:33N 43°49' E 007°48'4 4.2
2015-Jul-01 14:32N 43°46' E 007°43'1010.1
2015-Jul-01 13:33N 43°43' E 007°30'4 3.8
2015-Jul-01 12:33N 43°43' E 007°25'0 0.0
2015-Jul-01 11:27N 43°43' E 007°25'0 0.0
2015-Jul-01 10:26N 43°43' E 007°25'0 0.0
2015-Jul-01 09:33N 43°43' E 007°25'3 2.9
2015-Jul-01 08:33N 43°42' E 007°21'2 1.6
2015-Jul-01 07:33N 43°41' E 007°20'1 0.1
2015-Jul-01 00:17N 43°42' E 007°21'0 0.0
2015-Jun-30 20:12N 43°42' E 007°21'5 7.1
2015-Jun-30 19:34N 43°38' E 007°24'1110.7
2015-Jun-30 18:33N 43°30' E 007°35'1110.6
2015-Jun-30 17:33N 43°23' E 007°45'1110.6
2015-Jun-30 16:34N 43°15' E 007°55'8 8.3
2015-Jun-30 15:34N 43°09' E 008°03'8 8.1
2015-Jun-30 14:34N 43°03' E 008°11'2110.6
2015-Jun-30 12:33N 42°49' E 008°32'18 3.5
2015-Jun-30 07:24N 42°32' E 008°41'10 9.4
2015-Jun-30 06:19N 42°23' E 008°34'5 0.4
2015-Jun-29 17:33N 42°19' E 008°36'5 4.9
2015-Jun-29 16:33N 42°14' E 008°33'8 7.8
2015-Jun-29 15:33N 42°07' E 008°32'1110.3
2015-Jun-29 14:28N 41°55' E 008°34'9 9.8
2015-Jun-29 13:33N 41°47' E 008°37'61 1.2
2015-Jun-27 10:05N 41°02' E 009°32'0 0.0
2015-Jun-27 09:26N 41°02' E 009°32'  

Dump ship's entire track history